Portada
METAR-TAF:

METAR-TAF

Aeropuertos :

Middleton Island, Alaska, Estados Unidos

latitud: 59-26N, longitud: 146-18W, altitud: 27 m

Observación

El informe se hizo hace 33 minutos, a las 18:51 UTC
Viento 10 kt del sureste
Temperatura 13°C
Humedad 100%
Presión 1010 hPa
Visibilidad: 16.1 km
Escasas nubes a una altura de 800 ft
Cielo nuboso a una altura de 4700 ft
Cielo cubierto a una altura de 7000 ft
lluvia ligera

METAR: PAMD 151851Z AUTO 13010KT 10SM -RA FEW008 BKN047 OVC070 13/13 A2982 RMK AO2 RAB1756 SLP085 T01330128 PNO $

Hora: 11:24 (19:24 UTC)


TAF: falta

Observaciones y pronósticos meteorológicos de más de 4000 aeropuertos (mensajes METAR y TAF).

Los puntos amarillos y rojos representan las estaciones disponibles.

Ponga el ratón en el punto deseado para ver el nombre de la estación.

Haga clic para ver las observaciones y los pronósticos meteorológicos.

Para cambiar el mapa : haga clic en los botones verdes con una cruz de color negro para hacer un zoom, en el botón verde con un guión para alejar o en las flechas verdes para mapas adyacentes.


METAR-TAF: